Terminal Aerodrome Forecast
Issued by NWS Paducah, KY

Home | Current Version | Previous Version | Text Only | Print | Product List | Glossary On
Versions: 1 2 3 4 5 6 7 8 9 10 11 12
000
FTUS43 KPAH 252320
TAFEVV
TAF
KEVV 252320Z 2600/2624 32003KT P6SM SCT060
     FM260200 00000KT P6SM SKC
     FM261500 34006KT P6SM SCT050
     FM261900 35007KT P6SM BKN050=

USA.gov is the U.S. government's official web portal to all federal, state and local government web resources and services.